Time;durP1;ratioP1;P1;durP2;ratioP2;P2;SDS_P1;SDS_P2;PMS_P1;PMS_P2;Temp;Humidity;BMP_temperature;BMP_pressure;BME280_temperature;BME280_humidity;BME280_pressure;Samples;Min_cycle;Max_cycle;Signal;HPM_P1;HPM_P2
2023/07/11 00:01:42;;;;;;;4.75;4.35;;;;;;;;;;5077255;28;20204;-64
2023/07/11 00:04:10;;;;;;;5.05;4.57;;;;;;;;;;5077094;28;20293;-64
2023/07/11 00:06:37;;;;;;;4.75;4.35;;;;;;;;;;5076967;28;20221;-64
2023/07/11 00:09:04;;;;;;;4.63;4.30;;;;;;;;;;5077273;28;20208;-64
2023/07/11 00:11:32;;;;;;;4.85;4.47;;;;;;;;;;5077094;28;20208;-64
2023/07/11 00:14:00;;;;;;;4.70;4.40;;;;;;;;;;5077342;28;20208;-64
2023/07/11 00:16:28;;;;;;;4.97;4.43;;;;;;;;;;5077141;28;20204;-64
2023/07/11 00:18:55;;;;;;;4.28;3.97;;;;;;;;;;5077542;28;20230;-64
2023/07/11 00:21:23;;;;;;;5.28;4.78;;;;;;;;;;5077272;28;20205;-64
2023/07/11 00:23:50;;;;;;;5.05;4.65;;;;;;;;;;5076878;28;20236;-63
2023/07/11 00:26:17;;;;;;;4.53;4.13;;;;;;;;;;5077095;28;20211;-64
2023/07/11 00:28:44;;;;;;;4.53;4.22;;;;;;;;;;5077474;28;20200;-63
2023/07/11 00:31:13;;;;;;;4.53;4.22;;;;;;;;;;5077321;28;20216;-64
2023/07/11 00:33:40;;;;;;;4.68;4.38;;;;;;;;;;5078136;28;20362;-66
2023/07/11 00:36:08;;;;;;;4.63;4.25;;;;;;;;;;5080962;28;20212;-64
2023/07/11 00:38:35;;;;;;;4.43;4.13;;;;;;;;;;5080484;28;20212;-64
2023/07/11 00:41:03;;;;;;;4.55;4.25;;;;;;;;;;5080895;28;20215;-64
2023/07/11 00:43:31;;;;;;;4.85;4.35;;;;;;;;;;5080362;28;20225;-64
2023/07/11 00:46:12;;;;;;;4.80;4.40;;;;;;;;;;5080536;28;20511;-63
2023/07/11 00:48:42;;;;;;;4.68;4.28;;;;;;;;;;5080978;28;20836;-64
2023/07/11 00:51:10;;;;;;;4.82;4.38;;;;;;;;;;5080627;28;20204;-64
2023/07/11 00:53:39;;;;;;;4.95;4.47;;;;;;;;;;5080209;28;20232;-63
2023/07/11 00:56:08;;;;;;;4.85;4.55;;;;;;;;;;5080847;28;20493;-65
2023/07/11 00:58:37;;;;;;;4.80;4.40;;;;;;;;;;5080322;28;20204;-64
2023/07/11 01:01:05;;;;;;;5.10;4.55;;;;;;;;;;5080344;28;20205;-64
2023/07/11 01:03:33;;;;;;;4.93;4.53;;;;;;;;;;5079859;28;20231;-64
2023/07/11 01:06:01;;;;;;;4.70;4.38;;;;;;;;;;5080167;28;20212;-63
2023/07/11 01:08:29;;;;;;;4.95;4.55;;;;;;;;;;5079904;28;20232;-64
2023/07/11 01:10:56;;;;;;;5.15;4.85;;;;;;;;;;5080482;28;20216;-64
2023/07/11 01:13:23;;;;;;;4.60;4.28;;;;;;;;;;5079959;28;20200;-64
2023/07/11 01:15:51;;;;;;;5.47;4.35;;;;;;;;;;5079767;28;20204;-64
2023/07/11 01:18:18;;;;;;;4.85;4.45;;;;;;;;;;5079513;28;20262;-64
2023/07/11 01:20:45;;;;;;;4.35;4.05;;;;;;;;;;5079779;28;20592;-63
2023/07/11 01:23:15;;;;;;;4.65;4.35;;;;;;;;;;5079993;28;20622;-63
2023/07/11 01:25:42;;;;;;;5.30;4.22;;;;;;;;;;5079762;28;20219;-64
2023/07/11 01:28:12;;;;;;;4.60;4.20;;;;;;;;;;5080061;28;20204;-63
2023/07/11 01:30:40;;;;;;;4.70;4.40;;;;;;;;;;5079784;28;20212;-63
2023/07/11 01:33:08;;;;;;;4.53;4.13;;;;;;;;;;5079632;28;20673;-64
2023/07/11 01:35:35;;;;;;;5.35;4.85;;;;;;;;;;5079859;28;20204;-63
2023/07/11 01:38:02;;;;;;;5.07;4.57;;;;;;;;;;5079639;28;20273;-64
2023/07/11 01:40:31;;;;;;;5.15;4.75;;;;;;;;;;5079713;28;20274;-64
2023/07/11 01:42:59;;;;;;;4.93;4.63;;;;;;;;;;5079499;28;20239;-64
2023/07/11 01:45:26;;;;;;;4.78;4.47;;;;;;;;;;5078326;28;20212;-64
2023/07/11 01:47:53;;;;;;;4.95;4.55;;;;;;;;;;5079536;28;20212;-64
2023/07/11 01:50:20;;;;;;;5.55;4.50;;;;;;;;;;5079438;28;20204;-64
2023/07/11 01:52:48;;;;;;;5.10;4.70;;;;;;;;;;5079577;28;20201;-64
2023/07/11 01:55:15;;;;;;;5.38;4.60;;;;;;;;;;5079227;28;20244;-64
2023/07/11 01:57:44;;;;;;;4.80;4.40;;;;;;;;;;5079140;28;20546;-64
2023/07/11 02:00:12;;;;;;;4.80;4.40;;;;;;;;;;5079591;28;20229;-64
2023/07/11 02:02:39;;;;;;;5.07;4.55;;;;;;;;;;5079029;28;20606;-63
2023/07/11 02:05:07;;;;;;;5.00;4.60;;;;;;;;;;5079554;28;20204;-64
2023/07/11 02:07:34;;;;;;;5.45;4.95;;;;;;;;;;5078662;28;20204;-64
2023/07/11 02:10:02;;;;;;;4.70;4.40;;;;;;;;;;5078899;28;20204;-64
2023/07/11 02:12:29;;;;;;;4.82;4.35;;;;;;;;;;5078697;28;20212;-71
2023/07/11 02:14:58;;;;;;;5.00;4.60;;;;;;;;;;5078807;28;20200;-63
2023/07/11 02:17:25;;;;;;;4.70;4.40;;;;;;;;;;5078944;28;20216;-63
2023/07/11 02:19:52;;;;;;;5.05;4.65;;;;;;;;;;5078922;28;20204;-64
2023/07/11 02:22:20;;;;;;;5.10;4.80;;;;;;;;;;5078822;28;20212;-63
2023/07/11 02:24:47;;;;;;;4.60;4.20;;;;;;;;;;5078583;28;20224;-64
2023/07/11 02:27:15;;;;;;;5.03;4.63;;;;;;;;;;5078511;28;20212;-63
2023/07/11 02:29:42;;;;;;;4.70;4.30;;;;;;;;;;5078403;28;20219;-64
2023/07/11 02:32:11;;;;;;;4.97;4.57;;;;;;;;;;5078308;28;20216;-64
2023/07/11 02:34:38;;;;;;;5.15;4.75;;;;;;;;;;5078381;28;20201;-64
2023/07/11 02:37:05;;;;;;;5.28;4.88;;;;;;;;;;5078168;28;20215;-64
2023/07/11 02:39:33;;;;;;;4.90;4.50;;;;;;;;;;5078475;28;20204;-63
2023/07/11 02:42:00;;;;;;;4.47;4.18;;;;;;;;;;5078043;28;20204;-63
2023/07/11 02:44:27;;;;;;;4.95;4.55;;;;;;;;;;5077854;28;20236;-63
2023/07/11 02:46:55;;;;;;;4.90;4.50;;;;;;;;;;5077970;28;20204;-63
2023/07/11 02:49:23;;;;;;;4.88;4.43;;;;;;;;;;5078517;28;20211;-63
2023/07/11 02:51:51;;;;;;;4.95;4.55;;;;;;;;;;5078086;28;20215;-64
2023/07/11 02:54:18;;;;;;;4.53;4.22;;;;;;;;;;5077416;28;20647;-64
2023/07/11 02:56:46;;;;;;;4.53;4.20;;;;;;;;;;5077877;28;20595;-64
2023/07/11 02:59:13;;;;;;;4.68;4.28;;;;;;;;;;5078120;28;20277;-64
2023/07/11 03:01:41;;;;;;;4.97;4.50;;;;;;;;;;5078081;28;20614;-63
2023/07/11 03:04:08;;;;;;;4.95;4.55;;;;;;;;;;5077236;28;20533;-64
2023/07/11 03:06:37;;;;;;;4.47;4.18;;;;;;;;;;5078027;28;20219;-63
2023/07/11 03:09:05;;;;;;;4.75;4.45;;;;;;;;;;5077282;28;20212;-63
2023/07/11 03:11:32;;;;;;;4.68;4.38;;;;;;;;;;5076751;28;20208;-64
2023/07/11 03:13:59;;;;;;;4.85;4.55;;;;;;;;;;5077368;28;20200;-63
2023/07/11 03:16:26;;;;;;;4.45;4.15;;;;;;;;;;5077402;28;20212;-64
2023/07/11 03:18:54;;;;;;;4.65;4.32;;;;;;;;;;5077572;28;20206;-63
2023/07/11 03:21:21;;;;;;;4.43;4.13;;;;;;;;;;5078030;28;20649;-64
2023/07/11 03:23:50;;;;;;;5.20;4.80;;;;;;;;;;5077843;28;20232;-63
2023/07/11 03:26:17;;;;;;;4.90;4.50;;;;;;;;;;5077666;28;20205;-64
2023/07/11 03:28:45;;;;;;;4.50;4.20;;;;;;;;;;5077342;28;20215;-63
2023/07/11 03:31:12;;;;;;;4.20;3.85;;;;;;;;;;5077943;28;20214;-64
2023/07/11 03:33:40;;;;;;;4.35;4.05;;;;;;;;;;5077608;28;20283;-64
2023/07/11 03:36:07;;;;;;;4.50;4.10;;;;;;;;;;5077630;28;20244;-64
2023/07/11 03:38:34;;;;;;;4.65;4.25;;;;;;;;;;5077668;28;20568;-63
2023/07/11 03:41:03;;;;;;;4.50;4.15;;;;;;;;;;5077560;28;20645;-63
2023/07/11 03:43:30;;;;;;;4.72;4.30;;;;;;;;;;5077281;28;20232;-63
2023/07/11 03:45:58;;;;;;;4.40;4.10;;;;;;;;;;5077646;28;20273;-64
2023/07/11 03:48:25;;;;;;;4.53;4.10;;;;;;;;;;5076939;28;20211;-63
2023/07/11 03:50:52;;;;;;;4.80;4.50;;;;;;;;;;5076122;28;20204;-63
2023/07/11 03:53:20;;;;;;;5.57;4.40;;;;;;;;;;5076611;28;20274;-63
2023/07/11 03:55:47;;;;;;;4.70;4.30;;;;;;;;;;5077278;28;20215;-63
2023/07/11 03:58:16;;;;;;;4.53;4.13;;;;;;;;;;5076571;28;20204;-63
2023/07/11 04:00:43;;;;;;;4.43;4.13;;;;;;;;;;5076965;28;20212;-63
2023/07/11 04:03:11;;;;;;;4.28;3.97;;;;;;;;;;5076657;28;20212;-63
2023/07/11 04:05:38;;;;;;;4.75;4.35;;;;;;;;;;5077079;28;20209;-64
2023/07/11 04:08:06;;;;;;;4.38;3.90;;;;;;;;;;5077116;28;20576;-63
2023/07/11 04:10:33;;;;;;;4.00;3.70;;;;;;;;;;5080572;28;20212;-64
2023/07/11 04:13:01;;;;;;;4.45;4.07;;;;;;;;;;5080835;28;20204;-63
2023/07/11 04:15:30;;;;;;;4.40;4.10;;;;;;;;;;5080057;28;20509;-63
2023/07/11 04:17:57;;;;;;;4.90;4.50;;;;;;;;;;5079911;28;20204;-63
2023/07/11 04:20:24;;;;;;;4.78;4.38;;;;;;;;;;5080527;28;20212;-63
2023/07/11 04:22:52;;;;;;;4.28;3.97;;;;;;;;;;5080747;28;20204;-64
2023/07/11 04:25:19;;;;;;;4.38;4.07;;;;;;;;;;5080504;28;20224;-64
2023/07/11 04:27:47;;;;;;;4.10;3.80;;;;;;;;;;5080614;28;20219;-63
2023/07/11 04:30:14;;;;;;;4.60;4.30;;;;;;;;;;5080266;28;20269;-63
2023/07/11 04:32:43;;;;;;;4.72;4.32;;;;;;;;;;5080039;28;20211;-64
2023/07/11 04:35:13;;;;;;;4.80;4.40;;;;;;;;;;5079785;28;20211;-64
2023/07/11 04:37:40;;;;;;;4.80;4.40;;;;;;;;;;5080172;28;20204;-64
2023/07/11 04:40:09;;;;;;;4.55;4.25;;;;;;;;;;5079769;28;20226;-63
2023/07/11 04:42:36;;;;;;;4.78;4.30;;;;;;;;;;5079656;28;20232;-64
2023/07/11 04:45:04;;;;;;;4.50;4.20;;;;;;;;;;5079328;28;20232;-63
2023/07/11 04:47:31;;;;;;;4.72;4.32;;;;;;;;;;5079515;28;20204;-63
2023/07/11 04:50:00;;;;;;;4.70;4.40;;;;;;;;;;5079381;28;20212;-64
2023/07/11 04:52:27;;;;;;;4.90;4.60;;;;;;;;;;5079666;28;20212;-63
2023/07/11 04:54:55;;;;;;;4.82;4.43;;;;;;;;;;5078833;28;20256;-64
2023/07/11 04:57:22;;;;;;;4.80;4.40;;;;;;;;;;5079685;28;20269;-64
2023/07/11 04:59:50;;;;;;;4.45;4.15;;;;;;;;;;5079535;28;20418;-63
2023/07/11 05:02:17;;;;;;;4.90;4.45;;;;;;;;;;5079546;28;20227;-63
2023/07/11 05:04:44;;;;;;;4.78;4.38;;;;;;;;;;5079441;28;20294;-64
2023/07/11 05:07:13;;;;;;;4.95;4.65;;;;;;;;;;5079259;28;20215;-64
2023/07/11 05:09:41;;;;;;;4.13;3.83;;;;;;;;;;5079111;28;20208;-63
2023/07/11 05:12:10;;;;;;;4.70;4.30;;;;;;;;;;5078596;28;20216;-63
2023/07/11 05:14:37;;;;;;;4.90;4.60;;;;;;;;;;5078275;28;20200;-63
2023/07/11 05:17:05;;;;;;;5.07;4.68;;;;;;;;;;5078400;28;20487;-64
2023/07/11 05:19:32;;;;;;;4.60;4.28;;;;;;;;;;5078285;28;20216;-64
2023/07/11 05:21:59;;;;;;;4.68;4.38;;;;;;;;;;5078527;28;20203;-63
2023/07/11 05:24:28;;;;;;;4.95;4.65;;;;;;;;;;5078977;28;20232;-64
2023/07/11 05:26:55;;;;;;;5.03;4.63;;;;;;;;;;5078950;28;20230;-64
2023/07/11 05:29:23;;;;;;;4.93;4.43;;;;;;;;;;5078652;28;20556;-63
2023/07/11 05:31:50;;;;;;;5.63;5.10;;;;;;;;;;5078414;28;20212;-64
2023/07/11 05:34:17;;;;;;;6.80;5.15;;;;;;;;;;5078110;28;20580;-64
2023/07/11 05:36:45;;;;;;;5.45;4.90;;;;;;;;;;5078808;28;20254;-64
2023/07/11 05:39:13;;;;;;;5.55;5.05;;;;;;;;;;5078047;28;20212;-64
2023/07/11 05:41:44;;;;;;;5.53;5.00;;;;;;;;;;5078391;28;20270;-63
2023/07/11 05:44:12;;;;;;;6.00;5.20;;;;;;;;;;5077913;28;20277;-64
2023/07/11 05:46:39;;;;;;;5.53;5.03;;;;;;;;;;5078204;28;20218;-63
2023/07/11 05:49:06;;;;;;;5.57;5.07;;;;;;;;;;5078225;28;20204;-64
2023/07/11 05:51:35;;;;;;;5.07;4.68;;;;;;;;;;5077505;28;20279;-64
2023/07/11 05:54:02;;;;;;;4.93;4.53;;;;;;;;;;5077388;28;20254;-63
2023/07/11 05:56:29;;;;;;;5.57;5.15;;;;;;;;;;5077179;28;20204;-64
2023/07/11 05:58:59;;;;;;;5.15;4.75;;;;;;;;;;5077846;28;20209;-64
2023/07/11 06:01:27;;;;;;;5.25;4.85;;;;;;;;;;5077998;28;20208;-64
2023/07/11 06:04:04;;;;;;;5.70;5.20;;;;;;;;;;5077471;28;20205;-63
2023/07/11 06:06:32;;;;;;;6.30;5.70;;;;;;;;;;5077331;28;20204;-64
2023/07/11 06:08:59;;;;;;;5.63;5.22;;;;;;;;;;5076737;28;20559;-64
2023/07/11 06:11:26;;;;;;;6.10;5.60;;;;;;;;;;5077877;28;20211;-64
2023/07/11 06:13:53;;;;;;;6.22;5.72;;;;;;;;;;5077202;28;20227;-64
2023/07/11 06:16:22;;;;;;;5.95;5.45;;;;;;;;;;5077028;28;20210;-63
2023/07/11 06:18:53;;;;;;;5.90;5.40;;;;;;;;;;5077327;28;20225;-64
2023/07/11 06:21:21;;;;;;;6.40;5.90;;;;;;;;;;5076532;28;20277;-64
2023/07/11 06:23:48;;;;;;;5.90;5.40;;;;;;;;;;5076473;28;20212;-64
2023/07/11 06:26:16;;;;;;;6.20;5.80;;;;;;;;;;5077017;28;20223;-64
2023/07/11 06:28:44;;;;;;;7.10;6.40;;;;;;;;;;5077168;28;20226;-64
2023/07/11 06:31:13;;;;;;;6.70;6.20;;;;;;;;;;5076412;28;20204;-64
2023/07/11 06:33:41;;;;;;;6.57;6.07;;;;;;;;;;5076879;28;20298;-64
2023/07/11 06:36:09;;;;;;;6.28;5.78;;;;;;;;;;5076986;28;20205;-64
2023/07/11 06:38:37;;;;;;;6.93;6.43;;;;;;;;;;5076858;28;20231;-64
2023/07/11 06:41:05;;;;;;;6.78;6.18;;;;;;;;;;5076415;28;20212;-64
2023/07/11 06:43:32;;;;;;;6.57;6.07;;;;;;;;;;5076618;28;20222;-64
2023/07/11 06:46:01;;;;;;;7.15;6.45;;;;;;;;;;5075988;28;20311;-64
2023/07/11 06:48:29;;;;;;;7.32;6.78;;;;;;;;;;5075592;28;20520;-64
2023/07/11 06:50:59;;;;;;;6.82;6.32;;;;;;;;;;5075743;28;20204;-64
2023/07/11 06:53:27;;;;;;;7.20;6.50;;;;;;;;;;5075780;28;20654;-64
2023/07/11 06:55:55;;;;;;;7.20;6.70;;;;;;;;;;5076366;28;20298;-64
2023/07/11 06:58:23;;;;;;;6.70;6.25;;;;;;;;;;5075998;28;20205;-65
2023/07/11 07:00:55;;;;;;;6.93;6.43;;;;;;;;;;5075752;28;20196;-64
2023/07/11 07:03:23;;;;;;;7.07;6.57;;;;;;;;;;5076166;28;20215;-64
2023/07/11 07:05:51;;;;;;;6.55;6.00;;;;;;;;;;5075694;28;20228;-64
2023/07/11 07:08:20;;;;;;;7.60;6.97;;;;;;;;;;5075787;28;20215;-64
2023/07/11 07:10:48;;;;;;;7.40;6.80;;;;;;;;;;5075343;28;20204;-64
2023/07/11 07:13:16;;;;;;;6.50;6.10;;;;;;;;;;5075159;28;20295;-64
2023/07/11 07:15:44;;;;;;;6.45;5.95;;;;;;;;;;5075464;28;20200;-64
2023/07/11 07:18:11;;;;;;;6.07;5.68;;;;;;;;;;5075053;28;20207;-64
2023/07/11 07:20:38;;;;;;;7.28;6.70;;;;;;;;;;5075681;28;20211;-64
2023/07/11 07:23:06;;;;;;;7.20;6.70;;;;;;;;;;5075759;28;20206;-64
2023/07/11 07:25:35;;;;;;;7.43;6.65;;;;;;;;;;5075548;28;20232;-64
2023/07/11 07:28:03;;;;;;;7.22;6.65;;;;;;;;;;5075533;28;20228;-64
2023/07/11 07:30:31;;;;;;;6.85;6.20;;;;;;;;;;5075541;28;20212;-64
2023/07/11 07:32:59;;;;;;;7.30;6.70;;;;;;;;;;5075710;28;20564;-64
2023/07/11 07:35:26;;;;;;;7.32;6.82;;;;;;;;;;5075727;28;20471;-64
2023/07/11 07:37:54;;;;;;;7.10;6.50;;;;;;;;;;5075107;28;20204;-64
2023/07/11 07:40:23;;;;;;;7.90;7.20;;;;;;;;;;5075200;28;20218;-64
2023/07/11 07:42:51;;;;;;;6.85;6.35;;;;;;;;;;5075127;28;20626;-64
2023/07/11 07:45:19;;;;;;;7.47;6.75;;;;;;;;;;5078601;28;20250;-64
2023/07/11 07:47:47;;;;;;;7.28;6.78;;;;;;;;;;5079335;28;20214;-64
2023/07/11 07:50:14;;;;;;;7.20;6.60;;;;;;;;;;5079912;28;20211;-64
2023/07/11 07:52:42;;;;;;;8.15;7.45;;;;;;;;;;5080273;28;20231;-64
2023/07/11 07:55:09;;;;;;;8.20;7.60;;;;;;;;;;5078903;28;20228;-64
2023/07/11 07:57:37;;;;;;;7.72;7.13;;;;;;;;;;5079195;28;20494;-64
2023/07/11 08:00:07;;;;;;;8.45;7.75;;;;;;;;;;5078730;28;20214;-64
2023/07/11 08:02:35;;;;;;;8.40;7.72;;;;;;;;;;5078589;28;20486;-64
2023/07/11 08:05:03;;;;;;;8.25;7.65;;;;;;;;;;5079390;28;20220;-64
2023/07/11 08:07:31;;;;;;;8.20;7.60;;;;;;;;;;5079524;28;20204;-64
2023/07/11 08:09:59;;;;;;;8.13;7.53;;;;;;;;;;5078537;28;20208;-64
2023/07/11 08:12:26;;;;;;;9.02;8.32;;;;;;;;;;5077736;28;20216;-64
2023/07/11 08:14:54;;;;;;;8.68;8.07;;;;;;;;;;5078504;28;20231;-64
2023/07/11 08:17:22;;;;;;;8.90;8.13;;;;;;;;;;5079241;28;20204;-64
2023/07/11 08:19:51;;;;;;;9.68;8.77;;;;;;;;;;5078888;28;20301;-64
2023/07/11 08:22:18;;;;;;;8.98;8.27;;;;;;;;;;5078400;28;20495;-64
2023/07/11 08:24:45;;;;;;;8.80;8.10;;;;;;;;;;5077996;28;20738;-64
2023/07/11 08:27:13;;;;;;;9.02;8.23;;;;;;;;;;5078154;28;20262;-65
2023/07/11 08:29:44;;;;;;;8.73;8.05;;;;;;;;;;5078253;28;20641;-64
2023/07/11 08:32:12;;;;;;;9.48;8.75;;;;;;;;;;5078359;28;20208;-64
2023/07/11 08:34:42;;;;;;;9.15;8.43;;;;;;;;;;5077475;28;20226;-64
2023/07/11 08:37:09;;;;;;;9.13;8.43;;;;;;;;;;5078464;28;20207;-64
2023/07/11 08:39:37;;;;;;;8.88;8.15;;;;;;;;;;5077629;28;20227;-64
2023/07/11 08:42:07;;;;;;;8.50;7.90;;;;;;;;;;5078167;28;20205;-64
2023/07/11 08:44:37;;;;;;;8.50;7.90;;;;;;;;;;5077170;28;20265;-64
2023/07/11 08:47:06;;;;;;;9.32;8.63;;;;;;;;;;5077177;28;20287;-64
2023/07/11 08:49:36;;;;;;;9.10;8.30;;;;;;;;;;5076855;28;20212;-64
2023/07/11 08:52:06;;;;;;;9.55;8.70;;;;;;;;;;5076570;28;20204;-64
2023/07/11 08:54:35;;;;;;;9.15;8.45;;;;;;;;;;5077742;28;20326;-64
2023/07/11 08:57:02;;;;;;;9.48;8.68;;;;;;;;;;5076858;28;20212;-64
2023/07/11 08:59:40;;;;;;;9.98;9.18;;;;;;;;;;5077141;28;20761;-64
2023/07/11 09:02:17;;;;;;;9.63;8.82;;;;;;;;;;5077410;28;20467;-64
2023/07/11 09:04:46;;;;;;;9.35;8.65;;;;;;;;;;5077372;28;20239;-64
2023/07/11 09:07:18;;;;;;;9.60;8.88;;;;;;;;;;5076807;28;20223;-64
2023/07/11 09:09:45;;;;;;;9.35;8.63;;;;;;;;;;5077058;28;20200;-64
2023/07/11 09:12:18;;;;;;;9.43;8.73;;;;;;;;;;5077024;28;20200;-64
2023/07/11 09:14:51;;;;;;;10.05;9.20;;;;;;;;;;5076765;28;20626;-64
2023/07/11 09:17:23;;;;;;;9.88;8.98;;;;;;;;;;5076748;28;20476;-64
2023/07/11 09:19:59;;;;;;;8.98;8.27;;;;;;;;;;5077349;28;20212;-64
2023/07/11 09:22:32;;;;;;;10.25;9.45;;;;;;;;;;5076699;28;20301;-64
2023/07/11 09:25:07;;;;;;;9.55;8.70;;;;;;;;;;5076822;28;20196;-64
2023/07/11 09:27:35;;;;;;;10.82;10.02;;;;;;;;;;5077279;28;20219;-64
2023/07/11 09:30:11;;;;;;;10.23;9.43;;;;;;;;;;5075759;28;20236;-64
2023/07/11 09:32:39;;;;;;;9.60;8.90;;;;;;;;;;5076861;28;20206;-64
2023/07/11 09:35:25;;;;;;;9.65;8.95;;;;;;;;;;5075730;28;20299;-64
2023/07/11 09:37:57;;;;;;;10.00;9.18;;;;;;;;;;5077388;28;20247;-64
2023/07/11 09:40:30;;;;;;;10.43;9.63;;;;;;;;;;5076814;28;20223;-65
2023/07/11 09:42:58;;;;;;;10.55;9.70;;;;;;;;;;5075990;28;20203;-64
2023/07/11 09:45:33;;;;;;;10.88;9.98;;;;;;;;;;5076354;28;20224;-65
2023/07/11 09:48:09;;;;;;;10.82;9.93;;;;;;;;;;5075862;28;20210;-65
2023/07/11 09:50:42;;;;;;;11.10;10.13;;;;;;;;;;5076738;28;20200;-64
2023/07/11 09:53:13;;;;;;;11.20;10.25;;;;;;;;;;5075125;28;20200;-65
2023/07/11 09:55:41;;;;;;;11.55;10.55;;;;;;;;;;5074751;28;20262;-65
2023/07/11 09:58:14;;;;;;;10.52;9.52;;;;;;;;;;5074960;28;20204;-65
2023/07/11 10:00:45;;;;;;;10.70;9.80;;;;;;;;;;5075722;28;20243;-65
2023/07/11 10:03:16;;;;;;;11.70;10.63;;;;;;;;;;5076182;28;20208;-65
2023/07/11 10:05:45;;;;;;;11.40;10.48;;;;;;;;;;5075453;28;20228;-65
2023/07/11 10:08:17;;;;;;;12.20;11.20;;;;;;;;;;5075965;28;20503;-65
2023/07/11 10:10:46;;;;;;;12.48;11.35;;;;;;;;;;5075800;28;20204;-65
2023/07/11 10:13:15;;;;;;;12.73;11.52;;;;;;;;;;5075855;28;20212;-65
2023/07/11 10:15:43;;;;;;;13.02;11.93;;;;;;;;;;5075422;28;20203;-65
2023/07/11 10:18:17;;;;;;;12.75;11.63;;;;;;;;;;5075543;28;20208;-65
2023/07/11 10:20:45;;;;;;;12.85;11.75;;;;;;;;;;5075389;28;20269;-65
2023/07/11 10:23:14;;;;;;;13.43;12.32;;;;;;;;;;5075026;28;20219;-65
2023/07/11 10:25:44;;;;;;;12.85;11.75;;;;;;;;;;5074930;28;20631;-65
2023/07/11 10:28:20;;;;;;;13.68;12.45;;;;;;;;;;5075073;28;20266;-65
2023/07/11 10:30:47;;;;;;;13.32;12.02;;;;;;;;;;5075445;28;20273;-65
2023/07/11 10:33:19;;;;;;;12.93;11.80;;;;;;;;;;5075216;28;20197;-65
2023/07/11 10:35:48;;;;;;;13.23;12.13;;;;;;;;;;5074407;28;20464;-65
2023/07/11 10:38:19;;;;;;;13.57;12.43;;;;;;;;;;5074008;28;20298;-65
2023/07/11 10:40:49;;;;;;;13.23;12.07;;;;;;;;;;5074701;28;20212;-65
2023/07/11 10:43:23;;;;;;;14.38;13.07;;;;;;;;;;5074938;28;20200;-65
2023/07/11 10:45:52;;;;;;;12.93;11.88;;;;;;;;;;5075200;28;20375;-64
2023/07/11 10:48:23;;;;;;;13.23;12.07;;;;;;;;;;5074849;28;20243;-65
2023/07/11 10:50:54;;;;;;;13.52;12.32;;;;;;;;;;5074634;28;20291;-65
2023/07/11 10:53:26;;;;;;;13.82;12.63;;;;;;;;;;5074245;28;20196;-65
2023/07/11 10:55:58;;;;;;;13.10;12.05;;;;;;;;;;5074729;28;20292;-65
2023/07/11 10:58:25;;;;;;;13.15;12.05;;;;;;;;;;5074730;28;20300;-65
2023/07/11 11:01:00;;;;;;;12.02;10.98;;;;;;;;;;5074225;28;20212;-65
2023/07/11 11:03:37;;;;;;;12.57;11.48;;;;;;;;;;5074107;28;20783;-64
2023/07/11 11:06:12;;;;;;;12.88;11.68;;;;;;;;;;5073899;28;20226;-65
2023/07/11 11:08:41;;;;;;;13.45;12.20;;;;;;;;;;5075788;28;20206;-65
2023/07/11 11:11:15;;;;;;;11.68;10.70;;;;;;;;;;5075331;28;20215;-65
2023/07/11 11:13:48;;;;;;;12.55;11.38;;;;;;;;;;5073998;28;20208;-65
2023/07/11 11:16:23;;;;;;;11.68;10.68;;;;;;;;;;5074711;28;20207;-65
2023/07/11 11:18:56;;;;;;;11.90;10.80;;;;;;;;;;5074281;28;20609;-65
2023/07/11 11:21:28;;;;;;;11.90;10.88;;;;;;;;;;5074310;28;20261;-65
2023/07/11 11:24:03;;;;;;;11.57;10.48;;;;;;;;;;5074332;28;20219;-65
2023/07/11 11:26:34;;;;;;;12.73;11.52;;;;;;;;;;5074264;28;20257;-65
2023/07/11 11:29:06;;;;;;;11.68;10.63;;;;;;;;;;5074565;28;20204;-65
2023/07/11 11:31:34;;;;;;;11.45;10.48;;;;;;;;;;5074542;28;20299;-65
2023/07/11 11:34:16;;;;;;;11.40;10.35;;;;;;;;;;5073250;28;20211;-65
2023/07/11 11:36:51;;;;;;;12.45;11.25;;;;;;;;;;5074670;28;20204;-65
2023/07/11 11:39:24;;;;;;;11.77;10.73;;;;;;;;;;5073747;28;20218;-65
2023/07/11 11:41:57;;;;;;;11.65;10.57;;;;;;;;;;5073811;28;20223;-65
2023/07/11 11:44:28;;;;;;;12.23;11.23;;;;;;;;;;5073879;28;20472;-65
2023/07/11 11:46:56;;;;;;;11.90;10.90;;;;;;;;;;5074329;28;20224;-65
2023/07/11 11:49:25;;;;;;;11.82;10.82;;;;;;;;;;5074410;28;20204;-65
2023/07/11 11:51:53;;;;;;;10.98;10.07;;;;;;;;;;5074523;28;20214;-65
2023/07/11 11:54:21;;;;;;;11.95;10.90;;;;;;;;;;5074159;28;20267;-65
2023/07/11 11:56:52;;;;;;;11.55;10.48;;;;;;;;;;5073409;28;20196;-65
2023/07/11 11:59:22;;;;;;;11.00;10.05;;;;;;;;;;5073882;28;20204;-65
2023/07/11 12:01:58;;;;;;;10.63;9.63;;;;;;;;;;5072825;28;20584;-65
2023/07/11 12:04:37;;;;;;;10.52;9.73;;;;;;;;;;5073555;28;20218;-65
2023/07/11 12:07:07;;;;;;;11.57;10.48;;;;;;;;;;5073369;28;20228;-65
2023/07/11 12:09:40;;;;;;;11.57;10.52;;;;;;;;;;5074204;28;20207;-65
2023/07/11 12:12:10;;;;;;;10.90;9.93;;;;;;;;;;5073821;28;20596;-65
2023/07/11 12:14:39;;;;;;;11.10;10.10;;;;;;;;;;5073377;28;20270;-66
2023/07/11 12:17:07;;;;;;;10.98;9.98;;;;;;;;;;5073593;28;20200;-65
2023/07/11 12:19:35;;;;;;;11.23;10.27;;;;;;;;;;5073496;28;20200;-65
2023/07/11 12:22:06;;;;;;;10.45;9.55;;;;;;;;;;5073538;28;20220;-65
2023/07/11 12:24:41;;;;;;;11.57;10.57;;;;;;;;;;5073656;28;20330;-65
2023/07/11 12:27:27;;;;;;;11.70;10.70;;;;;;;;;;5073583;28;20224;-65
2023/07/11 12:29:56;;;;;;;11.60;10.60;;;;;;;;;;5035476;28;20204;-66
2023/07/11 12:32:38;;;;;;;11.32;10.32;;;;;;;;;;5077097;28;20204;-65
2023/07/11 12:35:12;;;;;;;11.52;10.52;;;;;;;;;;5061842;28;20220;-65
2023/07/11 12:37:43;;;;;;;11.40;10.45;;;;;;;;;;5077790;28;20208;-65
2023/07/11 12:40:16;;;;;;;12.05;11.05;;;;;;;;;;5077654;28;20211;-65
2023/07/11 12:42:49;;;;;;;11.88;10.88;;;;;;;;;;5076751;28;20265;-65
2023/07/11 12:45:20;;;;;;;11.75;10.73;;;;;;;;;;5077576;28;20485;-65
2023/07/11 12:47:48;;;;;;;11.57;10.68;;;;;;;;;;5077473;28;20785;-65
2023/07/11 12:50:19;;;;;;;11.70;10.70;;;;;;;;;;5076514;28;20214;-65
2023/07/11 12:52:48;;;;;;;11.98;10.95;;;;;;;;;;5077366;28;20262;-65
2023/07/11 12:55:15;;;;;;;12.45;11.35;;;;;;;;;;5076948;28;20228;-65
2023/07/11 12:57:45;;;;;;;11.55;10.55;;;;;;;;;;5076325;28;20820;-65
2023/07/11 13:00:21;;;;;;;12.15;11.15;;;;;;;;;;5077045;28;20216;-65
2023/07/11 13:02:49;;;;;;;12.75;11.65;;;;;;;;;;5076618;28;20649;-65
2023/07/11 13:05:16;;;;;;;12.88;11.68;;;;;;;;;;5076992;28;20208;-65
2023/07/11 13:07:47;;;;;;;12.18;11.18;;;;;;;;;;5076276;28;20226;-65
2023/07/11 13:10:20;;;;;;;12.32;11.27;;;;;;;;;;5076175;28;20732;-66
2023/07/11 13:12:47;;;;;;;12.60;11.60;;;;;;;;;;5075641;28;20316;-65
2023/07/11 13:15:15;;;;;;;12.95;11.75;;;;;;;;;;5076899;28;20269;-65
2023/07/11 13:17:45;;;;;;;12.32;11.23;;;;;;;;;;5076867;28;20265;-65
2023/07/11 13:20:18;;;;;;;13.13;11.95;;;;;;;;;;5076354;28;20204;-65
2023/07/11 13:22:46;;;;;;;12.75;11.65;;;;;;;;;;5076517;28;20203;-65
2023/07/11 13:25:15;;;;;;;12.02;11.00;;;;;;;;;;5076535;28;20720;-65
2023/07/11 13:27:46;;;;;;;12.35;11.27;;;;;;;;;;5076297;28;20588;-65
2023/07/11 13:30:20;;;;;;;12.23;11.13;;;;;;;;;;5076666;28;20212;-65
2023/07/11 13:32:53;;;;;;;11.93;10.90;;;;;;;;;;5076003;28;20630;-65
2023/07/11 13:35:21;;;;;;;11.98;10.98;;;;;;;;;;5075457;28;20240;-66
2023/07/11 13:37:50;;;;;;;12.05;11.05;;;;;;;;;;5075814;28;20200;-65
2023/07/11 13:40:44;;;;;;;11.93;10.82;;;;;;;;;;5076713;28;20583;-65
2023/07/11 13:43:16;;;;;;;11.10;10.20;;;;;;;;;;5027712;28;20261;-65
2023/07/11 13:45:44;;;;;;;11.88;10.88;;;;;;;;;;5075989;28;20269;-65
2023/07/11 13:48:16;;;;;;;11.52;10.48;;;;;;;;;;5075552;28;20228;-65
2023/07/11 13:50:44;;;;;;;11.50;10.55;;;;;;;;;;5074721;28;20295;-65
2023/07/11 13:53:14;;;;;;;11.18;10.27;;;;;;;;;;5075191;28;20212;-65
2023/07/11 13:55:45;;;;;;;11.50;10.60;;;;;;;;;;5075286;28;20208;-65
2023/07/11 13:58:12;;;;;;;11.07;10.15;;;;;;;;;;5075317;28;20208;-65
2023/07/11 14:00:45;;;;;;;11.25;10.27;;;;;;;;;;5075658;28;20230;-65
2023/07/11 14:03:15;;;;;;;10.98;9.98;;;;;;;;;;5074908;28;20212;-65
2023/07/11 14:05:47;;;;;;;11.13;10.20;;;;;;;;;;5076603;28;20258;-65
2023/07/11 14:08:15;;;;;;;11.35;10.27;;;;;;;;;;5075782;28;20236;-65
2023/07/11 14:10:42;;;;;;;11.65;10.65;;;;;;;;;;5075580;28;20212;-66
2023/07/11 14:13:14;;;;;;;11.68;10.57;;;;;;;;;;5075312;28;20230;-65
2023/07/11 14:15:42;;;;;;;11.50;10.50;;;;;;;;;;5076244;28;20285;-66
2023/07/11 14:18:10;;;;;;;10.90;9.95;;;;;;;;;;5075905;28;20203;-65
2023/07/11 14:20:39;;;;;;;11.13;10.23;;;;;;;;;;5075829;28;20215;-65
2023/07/11 14:23:13;;;;;;;11.05;10.15;;;;;;;;;;5075226;28;20197;-65
2023/07/11 14:25:40;;;;;;;11.02;10.13;;;;;;;;;;5074639;28;20207;-65
2023/07/11 14:28:13;;;;;;;11.93;10.80;;;;;;;;;;5074884;28;20219;-65
2023/07/11 14:30:41;;;;;;;11.20;10.30;;;;;;;;;;5075593;28;20231;-64
2023/07/11 14:33:11;;;;;;;11.00;10.10;;;;;;;;;;5075193;28;20235;-64
2023/07/11 14:35:38;;;;;;;10.88;9.88;;;;;;;;;;5074465;28;20572;-64
2023/07/11 14:38:10;;;;;;;10.80;9.90;;;;;;;;;;5075666;28;20212;-64
2023/07/11 14:40:39;;;;;;;11.10;10.00;;;;;;;;;;5075079;28;20201;-65
2023/07/11 14:43:12;;;;;;;10.93;10.02;;;;;;;;;;5074084;28;20227;-64
2023/07/11 14:45:40;;;;;;;10.05;9.25;;;;;;;;;;5074914;28;20274;-65